createdAt,value
2023-01-17T05:34:13.994Z,6.59
2023-01-17T05:37:17.415Z,6.59
2023-01-17T05:40:21.686Z,6.16
2023-01-17T05:43:24.398Z,6.19
2023-01-17T05:46:27.111Z,6.12
2023-01-17T05:49:29.779Z,6.11
2023-01-17T05:52:32.279Z,6.08
2023-01-17T05:55:35.044Z,5.98
2023-01-17T05:58:38.314Z,6.25
2023-01-17T06:01:40.959Z,6.03
2023-01-17T06:04:43.596Z,6.24
2023-01-17T06:07:46.399Z,6.32
2023-01-17T06:10:49.133Z,6.24
2023-01-17T06:13:51.709Z,6.04
2023-01-17T06:16:54.515Z,6.10
2023-01-17T06:19:57.068Z,6.36
2023-01-17T06:23:01.986Z,6.24
2023-01-17T06:26:04.661Z,6.31
2023-01-17T06:29:07.195Z,6.28
2023-01-17T06:32:09.821Z,6.33
2023-01-17T06:35:12.354Z,6.29
2023-01-17T06:38:14.945Z,6.24
2023-01-17T06:41:17.557Z,5.97
2023-01-17T06:44:20.137Z,6.04
2023-01-17T06:47:22.791Z,5.85
2023-01-17T06:50:26.167Z,5.91
2023-01-17T06:53:28.759Z,6.06
2023-01-17T06:56:32.424Z,6.24
2023-01-17T06:59:35.192Z,6.27
2023-01-17T07:02:39.297Z,6.20
2023-01-17T07:05:41.982Z,6.10
2023-01-17T07:08:44.646Z,5.90
2023-01-17T07:11:47.536Z,6.18
2023-01-17T07:14:50.277Z,5.96
2023-01-17T07:17:52.890Z,6.15
2023-01-17T07:20:56.264Z,6.10
2023-01-17T07:23:58.835Z,6.03
2023-01-17T07:27:01.370Z,6.14
2023-01-17T07:30:04.557Z,6.14
2023-01-17T07:33:07.707Z,5.96
2023-01-17T07:36:12.079Z,6.01
2023-01-17T07:39:14.606Z,6.08
2023-01-17T07:42:17.250Z,6.19
2023-01-17T07:45:21.490Z,5.97
2023-01-17T07:48:24.478Z,6.01
2023-01-17T07:51:27.166Z,5.78
2023-01-17T07:54:29.716Z,5.87
2023-01-17T07:57:33.101Z,5.65
2023-01-17T08:00:35.672Z,5.58
2023-01-17T08:03:41.319Z,5.54
2023-01-17T08:06:47.468Z,5.66
2023-01-17T08:09:50.636Z,5.63
2023-01-17T08:12:53.226Z,5.66
2023-01-17T08:15:57.904Z,5.59
2023-01-17T08:19:01.271Z,5.76
2023-01-17T08:22:03.947Z,5.53
2023-01-17T08:25:06.729Z,5.64
2023-01-17T08:28:09.248Z,5.64
2023-01-17T08:31:11.863Z,5.57
2023-01-17T08:34:18.172Z,5.63
2023-01-17T08:37:20.758Z,5.53
2023-01-17T08:40:23.795Z,5.57
2023-01-17T08:43:27.079Z,5.78
2023-01-17T08:46:32.820Z,5.63
2023-01-17T08:49:35.738Z,5.61
2023-01-17T08:52:38.325Z,5.72
2023-01-17T08:55:41.157Z,5.85
2023-01-17T08:58:43.712Z,5.78
2023-01-17T09:01:46.431Z,5.83
2023-01-17T09:04:49.464Z,5.90
2023-01-17T09:07:52.001Z,6.06
2023-01-17T09:10:54.545Z,6.03
2023-01-17T09:13:57.064Z,6.03
2023-01-17T09:17:00.121Z,6.08
2023-01-17T09:20:02.844Z,6.02
2023-01-17T09:23:05.427Z,6.22
2023-01-17T09:26:08.093Z,6.40
2023-01-17T09:29:10.595Z,6.34
2023-01-17T09:32:13.202Z,6.50
2023-01-17T09:35:18.505Z,6.65
2023-01-17T09:38:21.849Z,6.63
2023-01-17T09:41:31.137Z,6.72
2023-01-17T09:44:51.708Z,6.82
2023-01-17T09:47:54.333Z,6.64
2023-01-17T09:51:00.581Z,6.59
2023-01-17T09:54:03.682Z,6.59
2023-01-17T09:57:13.805Z,6.80
2023-01-17T10:00:34.874Z,6.89
2023-01-17T10:04:15.752Z,6.96
2023-01-17T10:07:53.144Z,6.74
2023-01-17T10:11:07.902Z,6.92
2023-01-17T10:14:41.637Z,6.80
2023-01-17T10:18:01.406Z,7.05
2023-01-17T10:21:19.336Z,7.20
2023-01-17T10:24:43.018Z,7.35
2023-01-17T10:27:59.253Z,7.33
2023-01-17T10:31:07.276Z,7.37
2023-01-17T10:34:18.980Z,7.32
2023-01-17T10:37:42.685Z,7.16
2023-01-17T10:40:50.373Z,7.21
2023-01-17T10:43:58.977Z,7.33
2023-01-17T10:47:10.577Z,7.26
2023-01-17T10:50:16.627Z,7.25
2023-01-17T10:53:35.514Z,7.16
2023-01-17T10:56:38.093Z,7.05
2023-01-17T10:59:40.711Z,7.31
2023-01-17T11:02:43.441Z,7.26
2023-01-17T11:05:46.033Z,7.37
2023-01-17T11:08:58.307Z,7.28
2023-01-17T11:12:00.903Z,7.53
2023-01-17T11:15:06.206Z,7.34
2023-01-17T11:18:13.757Z,7.26
2023-01-17T11:21:21.300Z,7.41
2023-01-17T11:24:31.462Z,7.57
2023-01-17T11:27:35.293Z,7.68
2023-01-17T11:30:37.766Z,7.66
2023-01-17T11:33:48.261Z,7.61
2023-01-17T11:37:10.802Z,7.81
2023-01-17T11:40:26.116Z,7.94
2023-01-17T11:43:28.706Z,8.15
2023-01-17T11:46:32.332Z,8.00
2023-01-17T11:49:34.950Z,8.09
2023-01-17T11:52:39.234Z,8.18
2023-01-17T11:56:01.247Z,8.30
2023-01-17T11:59:12.649Z,8.45
2023-01-17T12:02:43.344Z,8.36
2023-01-17T12:05:47.263Z,8.43
2023-01-17T12:09:23.130Z,8.07
2023-01-17T12:12:49.393Z,8.03
2023-01-17T12:16:00.149Z,8.14
2023-01-17T12:19:39.078Z,8.38
2023-01-17T12:22:45.651Z,8.50
2023-01-17T12:25:49.867Z,8.57
2023-01-17T12:28:58.317Z,8.32
2023-01-17T12:32:28.523Z,8.16
2023-01-17T12:35:38.828Z,8.00
2023-01-17T12:38:41.374Z,8.07
2023-01-17T12:41:59.543Z,8.28
2023-01-17T12:45:12.275Z,8.43
2023-01-17T12:48:22.864Z,8.44
2023-01-17T12:51:30.126Z,8.30
2023-01-17T12:54:41.159Z,8.13
2023-01-17T12:57:46.668Z,8.13
2023-01-17T13:00:56.912Z,8.16
2023-01-17T13:04:24.226Z,8.10
2023-01-17T13:07:49.774Z,8.00
2023-01-17T13:11:05.220Z,8.18
2023-01-17T13:14:09.407Z,8.22
2023-01-17T13:17:26.672Z,7.92
2023-01-17T13:20:50.707Z,8.11
2023-01-17T13:24:07.839Z,7.96
2023-01-17T13:27:20.086Z,8.08
2023-01-17T13:30:35.494Z,7.80
2023-01-17T13:33:59.669Z,7.95
2023-01-17T13:37:08.098Z,8.09
2023-01-17T13:40:49.543Z,8.15
2023-01-17T13:44:10.702Z,7.96
2023-01-17T13:47:19.370Z,8.07
2023-01-17T13:50:47.464Z,8.18
2023-01-17T13:53:50.121Z,8.08
2023-01-17T13:56:52.816Z,8.00
2023-01-17T14:00:21.435Z,7.98
2023-01-17T14:03:49.159Z,7.99
2023-01-17T14:06:54.029Z,8.01
2023-01-17T14:09:56.525Z,8.06
2023-01-17T14:12:59.143Z,8.17
2023-01-17T14:16:02.450Z,8.05
2023-01-17T14:19:05.083Z,7.80
2023-01-17T14:22:28.022Z,7.77
2023-01-17T14:25:40.579Z,7.72
2023-01-17T14:28:43.100Z,7.67
2023-01-17T14:31:45.809Z,7.62
2023-01-17T14:34:50.502Z,7.63
2023-01-17T14:37:53.455Z,7.70
2023-01-17T14:41:09.807Z,7.61
2023-01-17T14:44:12.424Z,7.68
2023-01-17T14:47:15.216Z,7.68
2023-01-17T14:50:29.563Z,7.54
2023-01-17T14:53:33.372Z,7.45
2023-01-17T14:56:35.969Z,7.49
2023-01-17T14:59:38.546Z,7.66
2023-01-17T15:02:43.328Z,7.56
2023-01-17T15:05:47.723Z,7.57
2023-01-17T15:08:51.978Z,7.49
2023-01-17T15:11:54.681Z,7.48
2023-01-17T15:14:58.851Z,7.51
2023-01-17T15:18:19.514Z,7.55
2023-01-17T15:21:27.324Z,7.55
2023-01-17T15:24:34.665Z,7.61
2023-01-17T15:27:37.454Z,7.53
2023-01-17T15:31:09.605Z,7.56
2023-01-17T15:34:31.606Z,7.52
2023-01-17T15:37:36.649Z,7.39
2023-01-17T15:40:43.620Z,7.49
2023-01-17T15:43:46.217Z,7.52
2023-01-17T15:46:48.900Z,7.52
2023-01-17T15:49:51.940Z,7.49
2023-01-17T15:52:56.194Z,7.57
2023-01-17T15:55:59.100Z,7.48
2023-01-17T15:59:40.879Z,7.60
2023-01-17T16:02:44.116Z,7.53
2023-01-17T16:05:47.054Z,7.44
2023-01-17T16:08:52.749Z,7.46
2023-01-17T16:11:55.355Z,7.39
2023-01-17T16:15:11.341Z,7.50
